Time;durP1;ratioP1;P1;durP2;ratioP2;P2;SDS_P1;SDS_P2;PMS_P1;PMS_P2;Temp;Humidity;BMP_temperature;BMP_pressure;BME280_temperature;BME280_humidity;BME280_pressure;Samples;Min_cycle;Max_cycle;Signal;HPM_P1;HPM_P2
2023/06/01 00:01:58;;;;;;;6.13;3.57;;;;;;;16.96;100.00;99278.78;5049464;28;20210;-76
2023/06/01 00:04:26;;;;;;;7.40;3.90;;;;;;;16.95;100.00;99282.31;5049842;28;20209;-76
2023/06/01 00:06:53;;;;;;;4.17;3.30;;;;;;;16.92;100.00;99277.44;5049703;28;20223;-76
2023/06/01 00:09:20;;;;;;;5.50;3.57;;;;;;;16.88;100.00;99280.47;5049830;28;20222;-76
2023/06/01 00:11:47;;;;;;;5.57;3.80;;;;;;;16.87;100.00;99274.50;5049200;28;20301;-76
2023/06/01 00:14:14;;;;;;;6.60;3.70;;;;;;;16.86;100.00;99277.22;5049388;28;20623;-76
2023/06/01 00:16:40;;;;;;;4.87;3.83;;;;;;;16.87;100.00;99273.66;5049561;28;20287;-76
2023/06/01 00:19:07;;;;;;;6.93;4.13;;;;;;;16.80;100.00;99273.44;5051373;28;20203;-76
2023/06/01 00:21:36;;;;;;;5.47;3.83;;;;;;;16.77;100.00;99268.56;5053375;28;20232;-76
2023/06/01 00:24:03;;;;;;;6.90;4.07;;;;;;;16.72;100.00;99271.53;5053294;28;20201;-76
2023/06/01 00:26:31;;;;;;;5.40;4.13;;;;;;;16.71;100.00;99269.13;5053006;28;20231;-76
2023/06/01 00:28:59;;;;;;;6.80;3.50;;;;;;;16.78;100.00;99265.03;5053065;28;20213;-76
2023/06/01 00:31:25;;;;;;;6.77;3.83;;;;;;;16.69;100.00;99271.03;5052724;28;20244;-76
2023/06/01 00:33:52;;;;;;;4.43;3.23;;;;;;;16.65;100.00;99269.72;5053229;28;20257;-76
2023/06/01 00:36:19;;;;;;;8.50;4.00;;;;;;;16.66;100.00;99271.31;5052808;28;20220;-77
2023/06/01 00:38:48;;;;;;;9.83;3.83;;;;;;;16.67;100.00;99268.63;5053145;28;20201;-76
2023/06/01 00:41:14;;;;;;;7.07;4.03;;;;;;;16.62;100.00;99270.81;5053066;28;20260;-76
2023/06/01 00:43:41;;;;;;;8.37;3.70;;;;;;;16.62;100.00;99275.16;5052708;28;20195;-76
2023/06/01 00:46:09;;;;;;;5.17;3.40;;;;;;;16.59;100.00;99276.25;5052672;28;20221;-76
2023/06/01 00:48:36;;;;;;;5.40;3.73;;;;;;;16.58;100.00;99274.66;5053057;28;20617;-76
2023/06/01 00:51:03;;;;;;;6.90;4.20;;;;;;;16.59;100.00;99270.28;5052619;28;20297;-76
2023/06/01 00:53:31;;;;;;;6.50;3.77;;;;;;;16.55;100.00;99269.78;5052844;28;20208;-76
2023/06/01 00:55:59;;;;;;;6.03;3.77;;;;;;;16.56;100.00;99271.38;5052848;28;20235;-76
2023/06/01 00:58:26;;;;;;;5.97;3.87;;;;;;;16.50;100.00;99264.22;5052611;28;20221;-77
2023/06/01 01:00:53;;;;;;;4.43;3.50;;;;;;;16.48;100.00;99266.94;5052575;28;20237;-76
2023/06/01 01:03:21;;;;;;;7.10;4.67;;;;;;;16.49;100.00;99260.84;5052378;28;20207;-77
2023/06/01 01:05:50;;;;;;;6.20;4.03;;;;;;;16.44;100.00;99262.22;5052716;28;20247;-77
2023/06/01 01:08:25;;;;;;;6.83;4.07;;;;;;;16.37;100.00;99261.16;5052348;28;20200;-77
2023/06/01 01:11:00;;;;;;;7.17;4.17;;;;;;;16.33;100.00;99259.84;5052477;28;20296;-77
2023/06/01 01:13:34;;;;;;;6.43;3.97;;;;;;;16.29;100.00;99267.88;5052257;28;20210;-77
2023/06/01 01:16:07;;;;;;;5.53;3.50;;;;;;;16.29;100.00;99265.28;5052864;28;20607;-77
2023/06/01 01:18:37;;;;;;;6.97;3.80;;;;;;;16.26;100.00;99275.06;5052497;28;20286;-77
2023/06/01 01:21:21;;;;;;;8.77;4.53;;;;;;;16.23;100.00;99265.03;5052444;28;20227;-77
2023/06/01 01:24:12;;;;;;;6.67;3.77;;;;;;;16.26;100.00;99265.56;5052222;28;20215;-77
2023/06/01 01:26:54;;;;;;;7.73;4.27;;;;;;;16.31;100.00;99267.72;5052218;28;20608;-77
2023/06/01 01:29:25;;;;;;;6.30;4.13;;;;;;;16.32;100.00;99268.50;5052283;28;20211;-77
2023/06/01 01:31:52;;;;;;;7.60;4.07;;;;;;;16.29;100.00;99267.06;5051921;28;20712;-77
2023/06/01 01:34:20;;;;;;;6.73;4.13;;;;;;;16.24;100.00;99266.66;5051851;28;20269;-77
2023/06/01 01:36:47;;;;;;;8.93;4.40;;;;;;;16.23;100.00;99257.28;5051888;28;20716;-77
2023/06/01 01:39:14;;;;;;;6.63;4.10;;;;;;;16.20;100.00;99266.16;5051941;28;20255;-77
2023/06/01 01:41:41;;;;;;;6.97;4.50;;;;;;;16.20;100.00;99262.72;5051839;28;20219;-77
2023/06/01 01:44:08;;;;;;;5.80;3.80;;;;;;;16.25;100.00;99263.13;5052111;28;20682;-77
2023/06/01 01:46:45;;;;;;;7.00;3.53;;;;;;;16.28;100.00;99260.25;5051732;28;20235;-77
2023/06/01 01:49:18;;;;;;;5.70;3.60;;;;;;;16.22;100.00;99258.25;5052299;28;20199;-77
2023/06/01 01:51:51;;;;;;;5.53;4.10;;;;;;;16.19;100.00;99253.38;5051343;28;20238;-77
2023/06/01 01:54:19;;;;;;;7.60;3.87;;;;;;;16.21;100.00;99251.47;5051740;28;20350;-77
2023/06/01 01:56:47;;;;;;;6.47;3.77;;;;;;;16.21;100.00;99256.63;5051445;28;20677;-77
2023/06/01 01:59:15;;;;;;;10.13;3.80;;;;;;;16.21;100.00;99251.47;5051459;28;20281;-77
2023/06/01 02:01:44;;;;;;;12.17;3.57;;;;;;;16.15;100.00;99252.03;5051236;28;20618;-76
2023/06/01 02:04:11;;;;;;;8.13;3.60;;;;;;;16.11;100.00;99253.25;5051829;28;20578;-77
2023/06/01 02:06:38;;;;;;;6.93;4.10;;;;;;;16.07;100.00;99253.56;5051249;28;20226;-77
2023/06/01 02:09:07;;;;;;;9.50;4.07;;;;;;;16.13;100.00;99248.78;5051822;28;20234;-77
2023/06/01 02:11:34;;;;;;;5.70;3.77;;;;;;;16.17;100.00;99255.28;5051101;28;20243;-77
2023/06/01 02:14:01;;;;;;;7.03;3.67;;;;;;;16.21;100.00;99251.47;5051623;28;20199;-77
2023/06/01 02:16:28;;;;;;;9.07;4.17;;;;;;;16.22;100.00;99263.41;5050986;28;20230;-77
2023/06/01 02:18:57;;;;;;;7.30;3.90;;;;;;;16.23;100.00;99254.69;5051311;28;20204;-77
2023/06/01 02:21:24;;;;;;;6.23;3.47;;;;;;;16.18;100.00;99256.91;5051009;28;20222;-77
2023/06/01 02:23:51;;;;;;;5.70;3.33;;;;;;;16.09;100.00;99260.34;5051400;28;20211;-77
2023/06/01 02:26:18;;;;;;;7.90;4.10;;;;;;;16.03;100.00;99257.38;5050902;28;20707;-77
2023/06/01 02:28:46;;;;;;;5.13;3.50;;;;;;;15.96;100.00;99251.16;5051069;28;20233;-77
2023/06/01 02:31:14;;;;;;;9.33;3.60;;;;;;;15.94;100.00;99252.25;5050763;28;20239;-77
2023/06/01 02:33:41;;;;;;;9.27;4.40;;;;;;;15.98;100.00;99251.81;5051316;28;20221;-77
2023/06/01 02:36:10;;;;;;;6.87;3.47;;;;;;;15.99;100.00;99253.44;5050743;28;20266;-77
2023/06/01 02:38:38;;;;;;;8.37;3.53;;;;;;;15.95;100.00;99252.13;5051027;28;20196;-76
2023/06/01 02:41:04;;;;;;;9.30;3.57;;;;;;;15.90;100.00;99259.44;5049903;28;20610;-76
2023/06/01 02:43:35;;;;;;;5.33;3.63;;;;;;;15.94;100.00;99262.56;5050578;28;20194;-76
2023/06/01 02:46:01;;;;;;;5.60;4.13;;;;;;;16.00;100.00;99267.97;5050393;28;20228;-77
2023/06/01 02:48:29;;;;;;;5.90;3.77;;;;;;;16.03;100.00;99269.47;5050819;28;20260;-77
2023/06/01 02:50:56;;;;;;;5.67;3.33;;;;;;;15.95;100.00;99271.94;5050740;28;20303;-77
2023/06/01 02:53:26;;;;;;;6.87;3.90;;;;;;;15.93;100.00;99259.16;5050727;28;20218;-76
2023/06/01 02:55:53;;;;;;;5.87;3.67;;;;;;;15.96;100.00;99269.19;5050399;28;20233;-76
2023/06/01 02:58:21;;;;;;;5.20;3.40;;;;;;;15.95;100.00;99270.16;5050204;28;20199;-76
2023/06/01 03:00:47;;;;;;;6.23;3.43;;;;;;;15.86;100.00;99262.47;5050144;28;20219;-76
2023/06/01 03:03:14;;;;;;;5.53;3.40;;;;;;;15.90;100.00;99266.38;5050537;28;20202;-76
2023/06/01 03:05:42;;;;;;;5.03;3.43;;;;;;;15.89;100.00;99268.16;5050097;28;20996;-77
2023/06/01 03:08:10;;;;;;;7.83;3.67;;;;;;;15.85;100.00;99271.94;5050224;28;20207;-77
2023/06/01 03:10:38;;;;;;;7.00;3.70;;;;;;;15.90;100.00;99280.06;5050181;28;20230;-77
2023/06/01 03:13:05;;;;;;;9.20;4.23;;;;;;;15.88;100.00;99278.59;5050291;28;20671;-77
2023/06/01 03:15:33;;;;;;;4.57;3.70;;;;;;;15.87;100.00;99275.19;5050266;28;20529;-77
2023/06/01 03:18:00;;;;;;;6.47;3.43;;;;;;;15.83;100.00;99279.84;5050253;28;20326;-77
2023/06/01 03:20:27;;;;;;;8.47;4.37;;;;;;;15.91;100.00;99276.56;5049897;28;20262;-77
2023/06/01 03:22:54;;;;;;;5.73;3.70;;;;;;;16.01;100.00;99282.50;5050083;28;20268;-77
2023/06/01 03:25:21;;;;;;;7.50;4.23;;;;;;;16.09;100.00;99283.56;5050082;28;20254;-77
2023/06/01 03:27:49;;;;;;;8.17;3.97;;;;;;;16.06;100.00;99287.25;5049786;28;20213;-77
2023/06/01 03:30:16;;;;;;;7.00;4.20;;;;;;;16.09;100.00;99288.72;5049653;28;20222;-77
2023/06/01 03:32:44;;;;;;;4.50;3.47;;;;;;;16.06;100.00;99290.63;5049761;28;20722;-77
2023/06/01 03:35:12;;;;;;;11.10;3.57;;;;;;;15.98;100.00;99282.78;5049993;28;20219;-76
2023/06/01 03:37:41;;;;;;;5.47;3.77;;;;;;;16.03;100.00;99284.94;5049965;28;20725;-77
2023/06/01 03:40:11;;;;;;;6.73;3.63;;;;;;;16.07;100.00;99289.66;5049947;28;20223;-77
2023/06/01 03:42:38;;;;;;;7.37;3.97;;;;;;;16.05;100.00;99288.97;5050193;28;20655;-77
2023/06/01 03:45:08;;;;;;;5.80;3.73;;;;;;;16.09;100.00;99296.47;5051057;28;20308;-76
2023/06/01 03:47:35;;;;;;;7.43;3.40;;;;;;;16.07;100.00;99297.41;5049623;28;20203;-76
2023/06/01 03:50:02;;;;;;;7.43;3.90;;;;;;;16.17;100.00;99305.09;5049453;28;20225;-76
2023/06/01 03:52:29;;;;;;;6.67;4.10;;;;;;;16.23;100.00;99308.88;5050173;28;20299;-76
2023/06/01 03:54:56;;;;;;;6.17;3.33;;;;;;;16.30;100.00;99302.22;5053741;28;20224;-77
2023/06/01 03:57:23;;;;;;;6.73;3.63;;;;;;;16.42;100.00;99310.59;5053805;28;20211;-76
2023/06/01 03:59:51;;;;;;;11.83;3.90;;;;;;;16.55;100.00;99307.66;5053797;28;20223;-77
2023/06/01 04:02:20;;;;;;;7.00;4.10;;;;;;;16.60;100.00;99302.88;5053808;28;20213;-76
2023/06/01 04:04:47;;;;;;;7.63;3.50;;;;;;;16.65;100.00;99305.84;5053511;28;20221;-76
2023/06/01 04:07:18;;;;;;;8.43;3.63;;;;;;;16.61;100.00;99301.91;5053435;28;20770;-77
2023/06/01 04:09:46;;;;;;;8.20;4.43;;;;;;;16.64;100.00;99304.22;5053693;28;20223;-77
2023/06/01 04:12:14;;;;;;;13.67;5.13;;;;;;;16.69;100.00;99304.59;5053294;28;20268;-76
2023/06/01 04:14:41;;;;;;;9.93;3.60;;;;;;;16.71;100.00;99290.59;5053459;28;20203;-76
2023/06/01 04:17:08;;;;;;;12.73;4.83;;;;;;;16.78;100.00;99301.16;5053231;28;20680;-76
2023/06/01 04:19:36;;;;;;;6.90;3.97;;;;;;;16.79;100.00;99299.44;5053315;28;20601;-76
2023/06/01 04:22:04;;;;;;;5.43;3.50;;;;;;;16.85;100.00;99302.22;5053523;28;20282;-76
2023/06/01 04:24:30;;;;;;;4.97;3.43;;;;;;;16.97;100.00;99306.22;5053463;28;20207;-76
2023/06/01 04:26:58;;;;;;;8.47;4.47;;;;;;;17.08;100.00;99304.41;5053130;28;20593;-76
2023/06/01 04:29:25;;;;;;;9.37;4.00;;;;;;;17.13;100.00;99304.75;5052827;28;20203;-76
2023/06/01 04:31:54;;;;;;;30.20;5.57;;;;;;;17.17;100.00;99300.94;5052946;28;20237;-76
2023/06/01 04:34:23;;;;;;;66.30;7.53;;;;;;;17.27;100.00;99309.41;5053303;28;20247;-76
2023/06/01 04:36:51;;;;;;;29.20;6.30;;;;;;;17.34;100.00;99307.06;5053284;28;20212;-76
2023/06/01 04:39:18;;;;;;;57.03;8.97;;;;;;;17.40;100.00;99299.50;5053390;28;20197;-76
2023/06/01 04:41:46;;;;;;;33.60;6.30;;;;;;;17.47;100.00;99306.66;5052845;28;20736;-76
2023/06/01 04:44:13;;;;;;;40.60;7.87;;;;;;;17.60;100.00;99307.09;5053050;28;20291;-76
2023/06/01 04:46:40;;;;;;;51.93;7.93;;;;;;;17.68;100.00;99306.31;5052699;28;20782;-76
2023/06/01 04:49:07;;;;;;;26.30;6.63;;;;;;;17.65;100.00;99307.44;5052864;28;20657;-76
2023/06/01 04:51:36;;;;;;;65.57;8.97;;;;;;;17.74;100.00;99314.28;5052596;28;20239;-76
2023/06/01 04:54:05;;;;;;;57.73;7.20;;;;;;;17.79;100.00;99314.69;5052652;28;20290;-76
2023/06/01 04:56:32;;;;;;;9.07;3.97;;;;;;;17.85;100.00;99311.50;5052502;28;20228;-77
2023/06/01 04:58:59;;;;;;;7.90;4.47;;;;;;;17.93;100.00;99309.94;5052558;28;20210;-76
2023/06/01 05:01:29;;;;;;;43.27;7.43;;;;;;;18.01;100.00;99315.16;5052676;28;20659;-77
2023/06/01 05:03:56;;;;;;;34.33;6.20;;;;;;;18.04;100.00;99312.25;5052253;28;20564;-77
2023/06/01 05:06:24;;;;;;;98.00;13.97;;;;;;;18.11;100.00;99318.44;5052144;28;20219;-77
2023/06/01 05:08:51;;;;;;;26.83;6.17;;;;;;;18.19;100.00;99318.50;5052819;28;20205;-76
2023/06/01 05:11:21;;;;;;;40.00;7.67;;;;;;;18.32;100.00;99316.28;5052362;28;20237;-76
2023/06/01 05:13:48;;;;;;;9.43;4.13;;;;;;;18.40;100.00;99325.06;5052419;28;20194;-76
2023/06/01 05:16:15;;;;;;;20.37;5.00;;;;;;;18.60;100.00;99323.84;5052208;28;20220;-76
2023/06/01 05:18:42;;;;;;;14.07;5.20;;;;;;;18.84;100.00;99332.69;5052541;28;20584;-77
2023/06/01 05:21:09;;;;;;;7.50;3.60;;;;;;;19.01;100.00;99326.56;5052254;28;20275;-77
2023/06/01 05:23:36;;;;;;;5.20;3.50;;;;;;;19.14;100.00;99329.53;5052468;28;20619;-77
2023/06/01 05:26:02;;;;;;;5.53;3.33;;;;;;;19.33;100.00;99337.97;5051953;28;20222;-77
2023/06/01 05:28:32;;;;;;;7.67;3.73;;;;;;;19.43;100.00;99344.63;5052627;28;20224;-78
2023/06/01 05:30:59;;;;;;;5.30;3.23;;;;;;;19.45;100.00;99354.81;5054038;28;20242;-78
2023/06/01 05:33:26;;;;;;;6.73;3.80;;;;;;;19.64;100.00;99351.91;5053852;28;20242;-78
2023/06/01 05:35:53;;;;;;;5.30;3.60;;;;;;;19.79;100.00;99348.69;5053574;28;20604;-78
2023/06/01 05:38:20;;;;;;;6.67;3.50;;;;;;;19.81;100.00;99360.53;5053577;28;20289;-78
2023/06/01 05:40:47;;;;;;;4.57;3.30;;;;;;;19.85;100.00;99363.59;5053274;28;20319;-79
2023/06/01 05:43:15;;;;;;;6.33;3.17;;;;;;;19.97;100.00;99366.66;5053075;28;20208;-78
2023/06/01 05:45:43;;;;;;;7.47;3.90;;;;;;;20.06;100.00;99361.28;5053411;28;20233;-79
2023/06/01 05:48:13;;;;;;;5.63;3.33;;;;;;;20.21;100.00;99368.41;5053452;28;20557;-78
2023/06/01 05:50:41;;;;;;;4.80;3.03;;;;;;;20.32;100.00;99362.88;5053005;28;20221;-78
2023/06/01 05:53:08;;;;;;;4.13;2.93;;;;;;;20.44;100.00;99374.50;5053849;28;20251;-78
2023/06/01 05:55:35;;;;;;;4.77;3.00;;;;;;;20.44;100.00;99374.50;5053173;28;20217;-78
2023/06/01 05:58:01;;;;;;;3.60;2.87;;;;;;;20.58;100.00;99366.03;5053945;28;20203;-78
2023/06/01 06:00:28;;;;;;;6.40;3.30;;;;;;;20.70;100.00;99368.28;5053305;28;20229;-78
2023/06/01 06:02:57;;;;;;;5.47;3.50;;;;;;;20.78;100.00;99376.03;5052678;28;20206;-78
2023/06/01 06:05:23;;;;;;;5.03;2.90;;;;;;;20.89;100.00;99383.47;5053456;28;20272;-78
2023/06/01 06:07:50;;;;;;;7.17;3.47;;;;;;;20.99;100.00;99378.84;5052947;28;20259;-78
2023/06/01 06:10:17;;;;;;;6.67;3.57;;;;;;;21.10;100.00;99384.66;5053593;28;20290;-78
2023/06/01 06:12:44;;;;;;;4.67;2.93;;;;;;;21.24;100.00;99381.31;5053570;28;20300;-78
2023/06/01 06:15:11;;;;;;;4.40;3.40;;;;;;;21.29;100.00;99379.00;5052419;28;20219;-78
2023/06/01 06:17:38;;;;;;;5.37;3.00;;;;;;;21.35;100.00;99383.53;5053404;28;20206;-78
2023/06/01 06:20:08;;;;;;;4.43;3.07;;;;;;;21.57;100.00;99386.31;5052448;28;20273;-78
2023/06/01 06:22:34;;;;;;;4.73;2.97;;;;;;;21.65;100.00;99394.06;5053143;28;20257;-77
2023/06/01 06:25:01;;;;;;;4.10;3.00;;;;;;;21.83;100.00;99383.34;5052400;28;20249;-78
2023/06/01 06:27:28;;;;;;;4.60;3.03;;;;;;;21.90;100.00;99377.28;5052871;28;20589;-78
2023/06/01 06:29:55;;;;;;;5.38;3.15;;;;;;;22.08;100.00;99383.94;5052586;28;20222;-77
2023/06/01 06:32:22;;;;;;;4.97;3.10;;;;;;;22.09;100.00;99385.56;5052522;28;20239;-78
2023/06/01 06:34:49;;;;;;;3.72;2.60;;;;;;;22.20;100.00;99382.53;5052361;28;20289;-77
2023/06/01 06:37:17;;;;;;;6.40;3.50;;;;;;;22.37;100.00;99380.59;5052321;28;20207;-77
2023/06/01 06:39:45;;;;;;;3.42;2.63;;;;;;;22.56;100.00;99376.59;5052459;28;20661;-78
2023/06/01 06:42:12;;;;;;;3.60;2.78;;;;;;;22.70;100.00;99378.38;5051872;28;20206;-78
2023/06/01 06:44:38;;;;;;;4.82;2.97;;;;;;;22.90;100.00;99377.81;5051993;28;20257;-78
2023/06/01 06:47:06;;;;;;;4.43;3.30;;;;;;;23.02;100.00;99384.19;5051560;28;20469;-78
2023/06/01 06:49:33;;;;;;;4.22;2.50;;;;;;;23.14;100.00;99385.34;5051982;28;20221;-78
2023/06/01 06:52:00;;;;;;;5.45;2.92;;;;;;;23.28;100.00;99376.66;5051004;28;20231;-77
2023/06/01 06:54:28;;;;;;;4.55;3.00;;;;;;;23.55;100.00;99383.91;5051467;28;20269;-77
2023/06/01 06:56:55;;;;;;;5.72;3.10;;;;;;;23.66;97.55;99389.44;5051358;28;20210;-78
2023/06/01 06:59:21;;;;;;;7.70;3.35;;;;;;;23.82;94.83;99387.56;5051764;28;20206;-78
2023/06/01 07:01:48;;;;;;;6.10;2.95;;;;;;;23.96;93.94;99386.69;5051323;28;20215;-77
2023/06/01 07:04:15;;;;;;;3.90;2.90;;;;;;;24.22;96.63;99382.63;5051940;28;20203;-77
2023/06/01 07:06:42;;;;;;;5.78;2.97;;;;;;;24.36;91.91;99397.41;5051318;28;20220;-78
2023/06/01 07:09:09;;;;;;;5.25;2.83;;;;;;;24.52;94.63;99393.69;5051978;28;20622;-78
2023/06/01 07:11:38;;;;;;;5.85;3.13;;;;;;;24.53;92.62;99390.88;5051399;28;20707;-78
2023/06/01 07:14:04;;;;;;;4.47;3.20;;;;;;;24.64;88.91;99397.38;5051590;28;20204;-78
2023/06/01 07:16:31;;;;;;;3.85;2.95;;;;;;;24.86;91.13;99395.44;5051003;28;20276;-78
2023/06/01 07:18:58;;;;;;;6.53;3.50;;;;;;;25.00;86.12;99402.31;5051787;28;20710;-78
2023/06/01 07:21:25;;;;;;;4.13;2.95;;;;;;;25.15;83.24;99396.16;5052489;28;20226;-78
2023/06/01 07:23:52;;;;;;;8.27;2.95;;;;;;;25.28;86.42;99388.34;5051939;28;20200;-78
2023/06/01 07:26:18;;;;;;;4.28;2.92;;;;;;;25.41;86.87;99383.13;5051565;28;20710;-79
2023/06/01 07:28:52;;;;;;;5.38;2.90;;;;;;;25.58;87.10;99382.75;5052322;28;20207;-79
2023/06/01 07:31:19;;;;;;;3.88;2.78;;;;;;;25.47;83.06;99382.31;5052739;28;20226;-79
2023/06/01 07:33:46;;;;;;;5.05;2.70;;;;;;;25.57;81.37;99388.97;5052402;28;20235;-78
2023/06/01 07:36:14;;;;;;;4.03;2.75;;;;;;;25.61;79.94;99382.34;5052004;28;20578;-78
2023/06/01 07:38:41;;;;;;;4.35;2.85;;;;;;;25.70;79.94;99386.34;5051267;28;20204;-77
2023/06/01 07:41:10;;;;;;;3.90;2.42;;;;;;;25.95;81.48;99384.78;5050460;28;20227;-77
2023/06/01 07:43:37;;;;;;;3.78;2.72;;;;;;;26.08;81.38;99377.91;5051152;28;20641;-77
2023/06/01 07:46:06;;;;;;;4.18;2.90;;;;;;;25.89;76.35;99390.81;5050625;28;20249;-77
2023/06/01 07:48:36;;;;;;;3.63;2.60;;;;;;;25.92;75.96;99389.63;5050982;28;20233;-77
2023/06/01 07:51:03;;;;;;;3.47;2.70;;;;;;;25.84;79.40;99390.63;5051365;28;20223;-79
2023/06/01 07:53:32;;;;;;;11.90;7.93;;;;;;;25.99;76.82;99392.22;5049582;28;20675;-78
2023/06/01 07:55:58;;;;;;;5.30;3.30;;;;;;;26.22;82.02;99389.97;5049168;28;20595;-79
2023/06/01 07:58:25;;;;;;;5.68;2.83;;;;;;;26.47;79.93;99386.66;5050090;28;20214;-78
2023/06/01 08:00:52;;;;;;;8.75;2.90;;;;;;;26.70;82.11;99376.50;5049512;28;20227;-77
2023/06/01 08:03:25;;;;;;;25.77;3.75;;;;;;;26.85;78.14;99384.94;5049538;28;20199;-77
2023/06/01 08:05:59;;;;;;;12.15;3.10;;;;;;;27.10;78.76;99392.06;5049691;28;20305;-77
2023/06/01 08:08:26;;;;;;;4.28;2.92;;;;;;;27.27;74.86;99389.78;5050238;28;20207;-77
2023/06/01 08:10:53;;;;;;;5.93;2.97;;;;;;;27.27;71.29;99387.94;5049698;28;20219;-77
2023/06/01 08:13:19;;;;;;;6.95;3.33;;;;;;;27.43;75.26;99385.81;5049760;28;20318;-77
2023/06/01 08:15:47;;;;;;;3.60;2.65;;;;;;;27.28;72.33;99389.53;5049435;28;20285;-77
2023/06/01 08:18:14;;;;;;;4.18;3.03;;;;;;;27.54;78.91;99393.00;5049812;28;20197;-77
2023/06/01 08:20:43;;;;;;;5.00;3.00;;;;;;;27.67;76.99;99387.66;5048900;28;20302;-77
2023/06/01 08:23:10;;;;;;;4.57;2.90;;;;;;;27.66;69.40;99390.50;5050010;28;20200;-77
2023/06/01 08:25:37;;;;;;;4.40;2.70;;;;;;;27.81;73.66;99390.19;5049187;28;20223;-77
2023/06/01 08:28:04;;;;;;;4.82;2.90;;;;;;;28.01;75.07;99388.19;5048991;28;20215;-77
2023/06/01 08:30:32;;;;;;;4.80;2.88;;;;;;;28.19;72.24;99390.84;5049287;28;20707;-77
2023/06/01 08:32:59;;;;;;;3.80;2.67;;;;;;;28.23;67.71;99379.91;5049257;28;20231;-77
2023/06/01 08:35:26;;;;;;;4.18;2.83;;;;;;;28.18;69.17;99383.97;5049358;28;20241;-77
2023/06/01 08:37:54;;;;;;;4.82;3.10;;;;;;;28.31;67.17;99374.34;5049503;28;20679;-77
2023/06/01 08:40:21;;;;;;;6.18;2.80;;;;;;;28.44;65.19;99382.09;5051802;28;20273;-77
2023/06/01 08:42:58;;;;;;;5.10;3.08;;;;;;;28.24;66.00;99366.50;5052776;28;20206;-78
2023/06/01 08:45:25;;;;;;;4.00;2.92;;;;;;;28.41;65.82;99366.75;5052906;28;20231;-78
2023/06/01 08:47:54;;;;;;;3.78;2.53;;;;;;;28.49;65.38;99369.09;5053201;28;20203;-79
2023/06/01 08:50:22;;;;;;;5.72;2.95;;;;;;;28.73;66.70;99359.50;5053768;28;20220;-77
2023/06/01 08:52:54;;;;;;;4.55;2.90;;;;;;;29.01;70.77;99360.75;5054064;28;20235;-78
2023/06/01 08:55:23;;;;;;;5.53;3.00;;;;;;;29.23;70.57;99361.06;5054023;28;20581;-77
2023/06/01 08:57:50;;;;;;;3.90;2.63;;;;;;;29.20;62.60;99364.13;5052905;28;20211;-77
2023/06/01 09:00:18;;;;;;;4.15;2.97;;;;;;;29.10;64.11;99354.97;5052638;28;20220;-77
2023/06/01 09:02:45;;;;;;;4.10;2.78;;;;;;;29.17;57.43;99354.84;5052461;28;20603;-77
2023/06/01 09:05:13;;;;;;;4.00;2.63;;;;;;;29.13;59.04;99363.44;5052582;28;20247;-77
2023/06/01 09:07:41;;;;;;;6.15;2.70;;;;;;;29.22;61.76;99351.56;5053739;28;20231;-77
2023/06/01 09:10:08;;;;;;;3.75;2.45;;;;;;;29.50;62.44;99337.75;5053533;28;20221;-77
2023/06/01 09:12:40;;;;;;;3.65;2.70;;;;;;;29.52;63.80;99340.94;5053044;28;20227;-77
2023/06/01 09:15:09;;;;;;;4.18;2.65;;;;;;;29.61;60.97;99350.09;5052810;28;20306;-77
2023/06/01 09:17:37;;;;;;;3.78;2.50;;;;;;;29.77;59.76;99352.09;5052495;28;20203;-77
2023/06/01 09:20:05;;;;;;;12.90;5.35;;;;;;;29.81;57.02;99352.44;5052700;28;20222;-77
2023/06/01 09:22:43;;;;;;;3.75;2.83;;;;;;;30.04;54.99;99356.09;5052711;28;20791;-77
2023/06/01 09:25:12;;;;;;;5.55;2.60;;;;;;;29.89;54.28;99352.09;5051843;28;20706;-77
2023/06/01 09:27:48;;;;;;;4.50;2.60;;;;;;;30.02;56.25;99343.16;5052362;28;20207;-77
2023/06/01 09:30:16;;;;;;;4.20;2.60;;;;;;;30.23;62.45;99336.47;5052225;28;20667;-77
2023/06/01 09:32:44;;;;;;;3.42;2.50;;;;;;;30.28;56.57;99343.69;5052140;28;20756;-77
2023/06/01 09:35:11;;;;;;;4.47;3.17;;;;;;;30.37;55.24;99348.38;5052427;28;20307;-78
2023/06/01 09:37:39;;;;;;;4.68;3.30;;;;;;;30.64;60.98;99338.06;5052468;28;20218;-78
2023/06/01 09:40:18;;;;;;;2.90;2.58;;;;;;;30.98;58.05;99342.63;5052560;28;20219;-78
2023/06/01 09:42:49;;;;;;;5.05;3.47;;;;;;;31.22;57.37;99349.38;5053389;28;20236;-78
2023/06/01 09:45:19;;;;;;;4.20;2.75;;;;;;;31.26;56.73;99349.69;5053426;28;20219;-78
2023/06/01 09:47:46;;;;;;;4.93;2.40;;;;;;;31.20;57.32;99335.59;5052457;28;20207;-77
2023/06/01 09:50:33;;;;;;;3.35;2.60;;;;;;;31.38;55.71;99337.25;5052237;28;20215;-77
2023/06/01 09:53:00;;;;;;;5.55;3.00;;;;;;;31.11;53.62;99334.41;5052608;28;20285;-77
2023/06/01 09:55:27;;;;;;;3.78;2.78;;;;;;;31.08;55.46;99332.25;5051986;28;20227;-77
2023/06/01 09:58:19;;;;;;;3.25;2.40;;;;;;;30.80;58.38;99328.59;5052130;28;20207;-77
2023/06/01 10:00:47;;;;;;;3.85;2.97;;;;;;;31.00;60.90;99324.72;5051683;28;20269;-77
2023/06/01 10:03:15;;;;;;;4.47;3.00;;;;;;;30.87;53.27;99325.81;5052031;28;20642;-77
2023/06/01 10:05:43;;;;;;;3.30;2.90;;;;;;;30.89;56.10;99329.00;5052108;28;20215;-78
2023/06/01 10:08:12;;;;;;;5.47;2.63;;;;;;;31.08;58.36;99326.97;5052402;28;20277;-77
2023/06/01 10:10:39;;;;;;;5.88;2.80;;;;;;;31.07;58.17;99326.16;5051493;28;20604;-78
2023/06/01 10:13:07;;;;;;;4.32;2.75;;;;;;;31.19;54.67;99328.72;5051779;28;20238;-77
2023/06/01 10:15:35;;;;;;;3.90;2.78;;;;;;;31.47;59.09;99324.41;5052066;28;20429;-78
2023/06/01 10:18:04;;;;;;;3.25;2.58;;;;;;;31.51;52.90;99336.13;5051943;28;20203;-77
2023/06/01 10:20:33;;;;;;;6.63;2.90;;;;;;;31.23;53.21;99315.84;5051945;28;20227;-77
2023/06/01 10:23:00;;;;;;;3.65;2.60;;;;;;;31.09;54.57;99320.63;5051696;28;20657;-77
2023/06/01 10:25:31;;;;;;;3.95;2.63;;;;;;;30.80;54.41;99311.97;5050886;28;20223;-77
2023/06/01 10:28:03;;;;;;;3.50;2.70;;;;;;;30.93;53.20;99313.50;5050914;28;20203;-77
2023/06/01 10:30:31;;;;;;;4.07;2.83;;;;;;;30.70;51.27;99303.84;5051003;28;20262;-77
2023/06/01 10:32:58;;;;;;;6.35;3.67;;;;;;;30.60;50.90;99300.00;5050644;28;20221;-77
2023/06/01 10:36:03;;;;;;;3.78;2.85;;;;;;;30.74;55.36;99297.84;5051030;28;20219;-77
2023/06/01 10:38:30;;;;;;;3.10;2.50;;;;;;;30.57;53.96;99294.38;5050954;28;20215;-77
2023/06/01 10:41:30;;;;;;;4.35;2.70;;;;;;;30.57;53.53;99294.38;5050778;28;20273;-77
2023/06/01 10:43:57;;;;;;;5.15;2.78;;;;;;;30.75;53.92;99296.81;5049401;28;20672;-77
2023/06/01 10:46:43;;;;;;;3.58;2.50;;;;;;;30.64;49.56;99289.75;5050579;28;20281;-77
2023/06/01 10:49:10;;;;;;;3.88;2.75;;;;;;;30.49;51.19;99286.84;5051004;28;20210;-77
2023/06/01 10:51:37;;;;;;;3.60;2.58;;;;;;;30.30;52.08;99279.09;5050408;28;20227;-77
2023/06/01 10:54:29;;;;;;;4.18;2.50;;;;;;;30.25;54.39;99270.28;5050315;28;20322;-77
2023/06/01 10:57:24;;;;;;;3.33;2.42;;;;;;;30.24;53.34;99269.50;5045377;28;20199;-77
2023/06/01 11:00:11;;;;;;;4.28;2.85;;;;;;;29.93;54.02;99268.06;5050280;28;20219;-77
2023/06/01 11:02:48;;;;;;;3.95;2.70;;;;;;;29.62;52.05;99267.44;5049704;28;20253;-77
2023/06/01 11:05:46;;;;;;;4.18;3.03;;;;;;;29.48;54.05;99269.47;5050546;28;20314;-77
2023/06/01 11:08:50;;;;;;;3.88;2.90;;;;;;;29.31;54.15;99276.44;5008257;28;20205;-77
2023/06/01 11:11:20;;;;;;;4.53;2.90;;;;;;;28.88;56.08;99283.56;5050241;28;20230;-77
2023/06/01 11:14:08;;;;;;;3.00;2.42;;;;;;;28.55;56.03;99283.25;5050442;28;20231;-77
2023/06/01 11:16:35;;;;;;;3.17;2.35;;;;;;;28.21;57.38;99278.34;5050231;28;20298;-77
2023/06/01 11:19:04;;;;;;;3.38;2.67;;;;;;;28.03;58.90;99272.31;5049937;28;20211;-77
2023/06/01 11:21:36;;;;;;;8.13;5.10;;;;;;;27.64;61.33;99269.88;5050015;28;20606;-77
2023/06/01 11:24:08;;;;;;;4.25;2.60;;;;;;;27.33;64.43;99281.28;5050560;28;20211;-77
2023/06/01 11:26:38;;;;;;;6.25;3.10;;;;;;;27.21;73.97;99273.28;5050584;28;20659;-77
2023/06/01 11:29:15;;;;;;;4.45;2.70;;;;;;;27.02;76.65;99274.22;5051277;28;20225;-78
2023/06/01 11:31:45;;;;;;;7.63;2.70;;;;;;;26.79;76.32;99265.09;5051211;28;20223;-78
2023/06/01 11:34:15;;;;;;;4.18;2.60;;;;;;;26.64;77.48;99257.50;5051608;28;20234;-78
2023/06/01 11:36:48;;;;;;;4.03;2.67;;;;;;;26.35;71.43;99252.78;5051460;28;20234;-79